createdAt,value
2018-07-05T00:02:09.544Z,3.67
2018-07-05T00:06:29.846Z,3.90
2018-07-05T00:10:50.158Z,6.30
2018-07-05T00:15:10.300Z,4.17
2018-07-05T00:19:30.327Z,8.63
2018-07-05T00:23:50.592Z,8.20
2018-07-05T00:28:10.748Z,5.90
2018-07-05T00:32:30.886Z,4.63
2018-07-05T00:36:45.309Z,8.63
2018-07-05T00:41:05.360Z,8.93
2018-07-05T00:45:25.680Z,7.10
2018-07-05T00:49:45.945Z,7.67
2018-07-05T00:54:06.068Z,7.00
2018-07-05T00:58:26.256Z,5.20
2018-07-05T01:02:46.413Z,3.97
2018-07-05T01:07:06.598Z,5.87
2018-07-05T01:11:26.845Z,6.10
2018-07-05T01:15:47.048Z,4.67
2018-07-05T01:20:07.325Z,7.37
2018-07-05T01:24:27.332Z,6.83
2018-07-05T01:28:47.441Z,10.10
2018-07-05T01:33:07.532Z,10.90
2018-07-05T01:37:27.645Z,7.50
2018-07-05T01:41:47.776Z,4.10
2018-07-05T01:46:07.962Z,10.57
2018-07-05T01:50:28.057Z,9.77
2018-07-05T01:54:48.072Z,4.90
2018-07-05T01:59:08.371Z,6.87
2018-07-05T02:03:28.494Z,7.73
2018-07-05T02:07:48.851Z,6.20
2018-07-05T02:12:09.072Z,6.43
2018-07-05T02:16:29.192Z,6.13
2018-07-05T02:20:49.460Z,6.77
2018-07-05T02:25:09.561Z,8.10
2018-07-05T02:29:29.834Z,6.73
2018-07-05T02:33:50.041Z,13.27
2018-07-05T02:38:15.871Z,8.73
2018-07-05T02:42:36.123Z,9.50
2018-07-05T02:46:56.272Z,6.47
2018-07-05T02:51:16.484Z,5.57
2018-07-05T02:55:36.767Z,5.10
2018-07-05T02:59:56.980Z,7.83
2018-07-05T03:04:17.142Z,8.97
2018-07-05T03:08:37.218Z,8.53
2018-07-05T03:12:57.730Z,10.00
2018-07-05T03:17:17.946Z,5.20
2018-07-05T03:21:38.293Z,6.87
2018-07-05T03:25:58.388Z,6.87
2018-07-05T03:30:18.346Z,11.70
2018-07-05T03:34:38.502Z,9.07
2018-07-05T03:38:58.757Z,9.63
2018-07-05T03:43:18.981Z,8.27
2018-07-05T03:47:39.056Z,6.80
2018-07-05T03:51:59.355Z,7.50
2018-07-05T03:56:19.378Z,6.87
2018-07-05T04:00:39.646Z,11.77
2018-07-05T04:04:59.850Z,6.83
2018-07-05T04:09:20.486Z,7.23
2018-07-05T04:13:40.522Z,6.43
2018-07-05T04:18:00.750Z,10.50
2018-07-05T04:22:20.959Z,8.83
2018-07-05T04:26:41.090Z,9.00
2018-07-05T04:31:01.363Z,10.70
2018-07-05T04:35:21.661Z,5.07
2018-07-05T04:39:41.962Z,6.20
2018-07-05T04:44:02.265Z,10.73
2018-07-05T04:48:22.505Z,8.53
2018-07-05T04:52:36.878Z,10.23
2018-07-05T04:56:56.995Z,6.43
2018-07-05T05:01:17.207Z,11.43
2018-07-05T05:05:37.278Z,8.83
2018-07-05T05:09:57.418Z,8.40
2018-07-05T05:14:17.634Z,8.80
2018-07-05T05:18:37.788Z,6.67
2018-07-05T05:22:58.159Z,11.77
2018-07-05T05:27:18.440Z,11.50
2018-07-05T05:31:38.788Z,11.53
2018-07-05T05:35:58.972Z,14.03
2018-07-05T05:40:19.292Z,10.20
2018-07-05T05:44:39.477Z,9.50
2018-07-05T05:48:59.526Z,12.67
2018-07-05T05:53:19.605Z,10.67
2018-07-05T05:57:39.823Z,14.53
2018-07-05T06:02:00.167Z,8.83
2018-07-05T06:06:20.266Z,12.13
2018-07-05T06:10:40.643Z,10.40
2018-07-05T06:15:00.822Z,14.00
2018-07-05T06:19:20.946Z,19.20
2018-07-05T06:23:41.236Z,17.37
2018-07-05T06:28:01.422Z,13.83
2018-07-05T06:32:21.694Z,15.03
2018-07-05T06:36:41.968Z,13.00
2018-07-05T06:41:02.225Z,16.93
2018-07-05T06:45:22.369Z,13.47
2018-07-05T06:49:42.626Z,12.60
2018-07-05T06:54:02.821Z,15.60
2018-07-05T06:58:22.877Z,18.97
2018-07-05T07:02:43.042Z,12.70
2018-07-05T07:07:03.318Z,17.10
2018-07-05T07:11:23.536Z,16.87
2018-07-05T07:15:43.828Z,13.73
2018-07-05T07:20:04.131Z,14.40
2018-07-05T07:24:24.375Z,12.63
2018-07-05T07:28:38.883Z,18.50
2018-07-05T07:32:59.044Z,10.97
2018-07-05T07:37:19.286Z,15.43
2018-07-05T07:41:39.464Z,17.30
2018-07-05T07:45:43.022Z,14.97
2018-07-05T07:49:44.668Z,17.80
2018-07-05T07:53:46.270Z,16.83
2018-07-05T07:57:47.930Z,17.50
2018-07-05T08:01:50.274Z,19.93
2018-07-05T08:05:51.927Z,17.03
2018-07-05T08:09:53.581Z,18.83
2018-07-05T08:13:55.168Z,13.87
2018-07-05T08:17:57.920Z,14.20
2018-07-05T08:21:59.687Z,14.70
2018-07-05T08:26:01.352Z,13.77
2018-07-05T08:30:03.030Z,13.07
2018-07-05T08:34:04.769Z,16.50
2018-07-05T08:38:06.439Z,18.70
2018-07-05T08:42:08.115Z,14.77
2018-07-05T08:46:09.762Z,13.03
2018-07-05T08:50:11.400Z,14.27
2018-07-05T08:54:13.067Z,10.43
2018-07-05T08:58:14.663Z,16.03
2018-07-05T09:02:16.265Z,12.67
2018-07-05T09:06:17.891Z,11.13
2018-07-05T09:10:19.490Z,10.77
2018-07-05T09:14:21.555Z,10.83
2018-07-05T09:18:23.169Z,10.43
2018-07-05T09:22:24.762Z,10.37
2018-07-05T09:26:26.336Z,9.47
2018-07-05T09:30:27.941Z,8.50
2018-07-05T09:34:29.557Z,12.10
2018-07-05T09:38:31.140Z,10.57
2018-07-05T09:42:32.830Z,9.37
2018-07-05T09:46:34.468Z,17.87
2018-07-05T09:50:36.085Z,8.00
2018-07-05T09:54:37.708Z,11.43
2018-07-05T09:58:39.339Z,9.00
2018-07-05T10:02:41.464Z,9.80
2018-07-05T10:06:43.103Z,14.50
2018-07-05T10:10:44.773Z,9.93
2018-07-05T10:14:46.355Z,7.30
2018-07-05T10:18:48.066Z,10.00
2018-07-05T10:22:50.113Z,12.20
2018-07-05T10:26:51.764Z,8.10
2018-07-05T10:31:05.990Z,13.50
2018-07-05T10:35:13.898Z,11.07
2018-07-05T10:39:15.520Z,10.80
2018-07-05T10:43:29.428Z,8.03
2018-07-05T10:47:49.624Z,10.17
2018-07-05T10:52:09.797Z,5.53
2018-07-05T10:56:30.161Z,9.03
2018-07-05T11:00:50.272Z,7.53
2018-07-05T11:05:10.350Z,8.27
2018-07-05T11:09:30.452Z,8.17
2018-07-05T11:13:50.741Z,8.83
2018-07-05T11:18:10.752Z,10.90
2018-07-05T11:22:30.952Z,10.30
2018-07-05T11:26:51.121Z,5.97
2018-07-05T11:31:11.358Z,5.83
2018-07-05T11:35:31.585Z,9.17
2018-07-05T11:39:51.821Z,5.37
2018-07-05T11:44:12.297Z,5.30
2018-07-05T11:48:32.681Z,6.43
2018-07-05T11:52:52.712Z,11.43
2018-07-05T11:57:07.088Z,5.70
2018-07-05T12:01:27.301Z,11.23
2018-07-05T12:05:47.507Z,4.47
2018-07-05T12:10:07.484Z,5.10
2018-07-05T12:14:27.787Z,7.33
2018-07-05T12:18:48.044Z,6.77
2018-07-05T12:23:08.457Z,5.10
2018-07-05T12:27:28.420Z,5.20
2018-07-05T12:31:49.136Z,4.17
2018-07-05T12:36:09.377Z,10.23
2018-07-05T12:40:23.949Z,6.63
2018-07-05T12:44:44.121Z,5.17
2018-07-05T12:49:04.761Z,7.90
2018-07-05T12:53:24.983Z,5.13
2018-07-05T12:57:55.127Z,6.30
2018-07-05T13:02:15.256Z,4.83
2018-07-05T13:06:35.274Z,7.50
2018-07-05T13:10:57.174Z,4.00
2018-07-05T13:15:19.436Z,3.47
2018-07-05T13:19:34.183Z,3.83
2018-07-05T13:23:55.259Z,5.13
2018-07-05T13:28:15.466Z,5.37
2018-07-05T13:32:35.548Z,4.87
2018-07-05T13:36:55.954Z,4.07
2018-07-05T13:41:16.732Z,4.70
2018-07-05T13:45:37.874Z,3.90
2018-07-05T13:49:57.938Z,5.20
2018-07-05T13:54:17.871Z,5.80
2018-07-05T13:58:38.004Z,4.33
2018-07-05T14:02:58.281Z,6.00
2018-07-05T14:07:18.284Z,3.87
2018-07-05T14:11:38.330Z,6.43
2018-07-05T14:15:52.812Z,5.00
2018-07-05T14:20:13.062Z,4.00
2018-07-05T14:24:33.295Z,2.63
2018-07-05T14:28:53.353Z,4.67
2018-07-05T14:33:13.471Z,4.70
2018-07-05T14:37:33.656Z,4.03
2018-07-05T14:41:54.475Z,4.27
2018-07-05T14:46:14.818Z,3.43
2018-07-05T14:50:35.037Z,3.80
2018-07-05T14:54:55.502Z,6.17
2018-07-05T14:59:16.078Z,3.80
2018-07-05T15:03:36.395Z,4.43
2018-07-05T15:07:56.676Z,2.83
2018-07-05T15:12:16.873Z,3.83
2018-07-05T15:16:37.203Z,4.77
2018-07-05T15:20:57.364Z,5.50
2018-07-05T15:25:17.474Z,2.90
2018-07-05T15:29:37.756Z,3.33
2018-07-05T15:33:57.885Z,3.00
2018-07-05T15:38:17.930Z,1.83
2018-07-05T15:42:38.324Z,2.57
2018-07-05T15:46:58.537Z,3.43
2018-07-05T15:51:18.824Z,3.00
2018-07-05T15:55:39.013Z,3.10
2018-07-05T15:59:59.412Z,4.10
2018-07-05T16:04:19.759Z,2.50
2018-07-05T16:08:40.062Z,5.03
2018-07-05T16:13:00.215Z,2.87
2018-07-05T16:17:20.517Z,2.50
2018-07-05T16:21:41.035Z,4.90
2018-07-05T16:26:01.063Z,5.47
2018-07-05T16:30:21.058Z,4.30
2018-07-05T16:34:41.605Z,6.37
2018-07-05T16:39:01.744Z,6.03
2018-07-05T16:43:21.906Z,4.87
2018-07-05T16:47:42.298Z,4.87
2018-07-05T16:52:02.587Z,4.30
2018-07-05T16:56:22.861Z,5.17
2018-07-05T17:00:42.882Z,3.17
2018-07-05T17:05:04.004Z,4.33
2018-07-05T17:09:24.008Z,2.87
2018-07-05T17:13:44.345Z,4.97
2018-07-05T17:18:04.597Z,3.23
2018-07-05T17:22:24.752Z,3.63
2018-07-05T17:26:44.901Z,2.33
2018-07-05T17:31:05.102Z,3.90
2018-07-05T17:35:25.263Z,2.37
2018-07-05T17:39:45.453Z,4.37
2018-07-05T17:44:05.877Z,1.23
2018-07-05T17:48:25.980Z,2.47
2018-07-05T17:52:46.003Z,1.70
2018-07-05T17:57:06.075Z,2.90
2018-07-05T18:01:26.060Z,1.83
2018-07-05T18:05:46.056Z,2.17
2018-07-05T18:10:06.179Z,1.77
2018-07-05T18:14:20.733Z,4.13
2018-07-05T18:18:40.850Z,1.57
2018-07-05T18:23:01.275Z,1.40
2018-07-05T18:27:22.677Z,5.37
2018-07-05T18:31:43.001Z,2.50
2018-07-05T18:36:03.131Z,1.80
2018-07-05T18:40:23.399Z,1.50
2018-07-05T18:44:43.975Z,1.90
2018-07-05T18:49:04.305Z,3.40
2018-07-05T18:53:24.406Z,2.90
2018-07-05T18:57:44.581Z,4.97
2018-07-05T19:02:04.643Z,5.40
2018-07-05T19:06:24.880Z,2.27
2018-07-05T19:10:45.047Z,1.63
2018-07-05T19:15:05.263Z,3.00
2018-07-05T19:19:25.404Z,1.53
2018-07-05T19:23:45.533Z,3.47
2018-07-05T19:28:05.655Z,2.83
2018-07-05T19:32:26.006Z,4.00
2018-07-05T19:36:48.708Z,1.73
2018-07-05T19:41:08.938Z,1.83
2018-07-05T19:45:32.091Z,2.13
2018-07-05T19:49:52.247Z,2.40
2018-07-05T19:54:12.366Z,7.77
2018-07-05T19:58:34.424Z,2.43
2018-07-05T20:02:55.276Z,2.90
2018-07-05T20:07:15.339Z,2.07
2018-07-05T20:11:35.624Z,4.30
2018-07-05T20:15:55.655Z,3.33
2018-07-05T20:20:15.780Z,4.20
2018-07-05T20:24:36.938Z,6.63
2018-07-05T20:28:57.355Z,2.20
2018-07-05T20:33:17.781Z,3.87
2018-07-05T20:37:38.080Z,1.97
2018-07-05T20:41:58.206Z,6.57
2018-07-05T20:46:18.555Z,2.97
2018-07-05T20:50:38.774Z,6.20
2018-07-05T20:54:58.906Z,3.03
2018-07-05T20:59:19.313Z,2.77
2018-07-05T21:03:39.476Z,2.43
2018-07-05T21:07:59.670Z,1.93
2018-07-05T21:12:19.771Z,5.03
2018-07-05T21:16:39.860Z,5.63
2018-07-05T21:20:59.961Z,2.33
2018-07-05T21:25:20.010Z,2.63
2018-07-05T21:29:40.051Z,1.53
2018-07-05T21:34:00.196Z,1.73
2018-07-05T21:38:20.352Z,2.07
2018-07-05T21:42:40.529Z,3.03
2018-07-05T21:47:00.693Z,4.20
2018-07-05T21:51:20.911Z,2.10
2018-07-05T21:55:41.228Z,1.43
2018-07-05T22:00:01.444Z,1.77
2018-07-05T22:04:21.518Z,1.23
2018-07-05T22:08:41.849Z,3.40
2018-07-05T22:13:01.886Z,2.13
2018-07-05T22:17:27.863Z,1.87
2018-07-05T22:21:53.514Z,2.33
2018-07-05T22:26:19.501Z,2.67
2018-07-05T22:30:45.359Z,4.20
2018-07-05T22:35:05.484Z,3.10
2018-07-05T22:39:25.653Z,4.10
2018-07-05T22:43:45.920Z,2.77
2018-07-05T22:48:06.005Z,4.20
2018-07-05T22:52:26.167Z,4.07
2018-07-05T22:56:46.209Z,3.10
2018-07-05T23:01:06.348Z,2.67
2018-07-05T23:05:26.510Z,3.23
2018-07-05T23:09:46.820Z,3.13
2018-07-05T23:14:06.987Z,2.93
2018-07-05T23:18:27.208Z,3.50
2018-07-05T23:22:47.434Z,4.43
2018-07-05T23:27:07.589Z,4.27
2018-07-05T23:31:27.642Z,5.07
2018-07-05T23:35:47.739Z,4.67
2018-07-05T23:40:08.110Z,4.20
2018-07-05T23:44:28.152Z,4.20
2018-07-05T23:48:48.500Z,4.60
2018-07-05T23:53:08.632Z,2.60
2018-07-05T23:57:28.801Z,2.40
